sensor_id;sensor_type;location;lat;lon;timestamp;temperature;humidity
70051;SHT30;57391;51.306;22.680;2024-02-21T00:00:55;6.73;83.22
70051;SHT30;57391;51.306;22.680;2024-02-21T00:03:17;6.72;83.22
70051;SHT30;57391;51.306;22.680;2024-02-21T00:05:18;6.73;83.26
70051;SHT30;57391;51.306;22.680;2024-02-21T00:07:20;6.73;83.29
70051;SHT30;57391;51.306;22.680;2024-02-21T00:09:22;6.72;83.30
70051;SHT30;57391;51.306;22.680;2024-02-21T00:11:24;6.72;83.40
70051;SHT30;57391;51.306;22.680;2024-02-21T00:13:25;6.70;83.50
70051;SHT30;57391;51.306;22.680;2024-02-21T00:15:27;6.68;83.55
70051;SHT30;57391;51.306;22.680;2024-02-21T00:17:29;6.67;83.53
70051;SHT30;57391;51.306;22.680;2024-02-21T00:19:30;6.66;83.53
70051;SHT30;57391;51.306;22.680;2024-02-21T00:21:32;6.66;83.44
70051;SHT30;57391;51.306;22.680;2024-02-21T00:23:34;6.66;83.32
70051;SHT30;57391;51.306;22.680;2024-02-21T00:25:36;6.67;83.26
70051;SHT30;57391;51.306;22.680;2024-02-21T00:27:37;6.66;83.14
70051;SHT30;57391;51.306;22.680;2024-02-21T00:29:42;6.65;83.11
70051;SHT30;57391;51.306;22.680;2024-02-21T00:31:44;6.65;83.09
70051;SHT30;57391;51.306;22.680;2024-02-21T00:33:46;6.67;83.01
70051;SHT30;57391;51.306;22.680;2024-02-21T00:35:48;6.66;82.95
70051;SHT30;57391;51.306;22.680;2024-02-21T00:37:49;6.65;82.84
70051;SHT30;57391;51.306;22.680;2024-02-21T00:39:53;6.64;82.82
70051;SHT30;57391;51.306;22.680;2024-02-21T00:41:55;6.64;82.81
70051;SHT30;57391;51.306;22.680;2024-02-21T00:43:57;6.65;82.78
70051;SHT30;57391;51.306;22.680;2024-02-21T00:45:59;6.63;82.76
70051;SHT30;57391;51.306;22.680;2024-02-21T00:48:00;6.64;82.74
70051;SHT30;57391;51.306;22.680;2024-02-21T00:50:02;6.63;82.71
70051;SHT30;57391;51.306;22.680;2024-02-21T00:52:04;6.62;82.70
70051;SHT30;57391;51.306;22.680;2024-02-21T00:54:06;6.61;82.71
70051;SHT30;57391;51.306;22.680;2024-02-21T00:56:08;6.62;82.72
70051;SHT30;57391;51.306;22.680;2024-02-21T00:58:10;6.60;82.64
70051;SHT30;57391;51.306;22.680;2024-02-21T01:00:11;6.58;82.56
70051;SHT30;57391;51.306;22.680;2024-02-21T01:02:14;6.57;82.50
70051;SHT30;57391;51.306;22.680;2024-02-21T01:04:16;6.55;82.43
70051;SHT30;57391;51.306;22.680;2024-02-21T01:06:17;6.53;82.34
70051;SHT30;57391;51.306;22.680;2024-02-21T01:08:19;6.52;82.25
70051;SHT30;57391;51.306;22.680;2024-02-21T01:10:21;6.52;82.18
70051;SHT30;57391;51.306;22.680;2024-02-21T01:12:24;6.51;82.10
70051;SHT30;57391;51.306;22.680;2024-02-21T01:14:26;6.50;81.96
70051;SHT30;57391;51.306;22.680;2024-02-21T01:16:27;6.47;81.85
70051;SHT30;57391;51.306;22.680;2024-02-21T01:18:29;6.45;81.78
70051;SHT30;57391;51.306;22.680;2024-02-21T01:20:31;6.43;81.65
70051;SHT30;57391;51.306;22.680;2024-02-21T01:22:32;6.42;81.60
70051;SHT30;57391;51.306;22.680;2024-02-21T01:24:34;6.41;81.47
70051;SHT30;57391;51.306;22.680;2024-02-21T01:26:36;6.39;81.40
70051;SHT30;57391;51.306;22.680;2024-02-21T01:28:38;6.36;81.30
70051;SHT30;57391;51.306;22.680;2024-02-21T01:30:40;6.33;81.26
70051;SHT30;57391;51.306;22.680;2024-02-21T01:32:41;6.31;81.16
70051;SHT30;57391;51.306;22.680;2024-02-21T01:34:43;6.27;81.18
70051;SHT30;57391;51.306;22.680;2024-02-21T01:36:45;6.26;81.18
70051;SHT30;57391;51.306;22.680;2024-02-21T01:38:47;6.24;81.18
70051;SHT30;57391;51.306;22.680;2024-02-21T01:40:49;6.23;81.20
70051;SHT30;57391;51.306;22.680;2024-02-21T01:42:50;6.23;81.29
70051;SHT30;57391;51.306;22.680;2024-02-21T01:44:54;6.22;81.31
70051;SHT30;57391;51.306;22.680;2024-02-21T01:46:56;6.22;81.38
70051;SHT30;57391;51.306;22.680;2024-02-21T01:48:58;6.21;81.36
70051;SHT30;57391;51.306;22.680;2024-02-21T01:51:00;6.23;81.38
70051;SHT30;57391;51.306;22.680;2024-02-21T01:53:05;6.22;81.30
70051;SHT30;57391;51.306;22.680;2024-02-21T01:55:09;6.22;81.24
70051;SHT30;57391;51.306;22.680;2024-02-21T01:57:14;6.22;81.20
70051;SHT30;57391;51.306;22.680;2024-02-21T01:59:16;6.21;81.18
70051;SHT30;57391;51.306;22.680;2024-02-21T02:01:19;6.21;81.03
70051;SHT30;57391;51.306;22.680;2024-02-21T02:03:22;6.18;80.93
70051;SHT30;57391;51.306;22.680;2024-02-21T02:05:23;6.17;80.90
70051;SHT30;57391;51.306;22.680;2024-02-21T02:07:25;6.16;80.78
70051;SHT30;57391;51.306;22.680;2024-02-21T02:09:27;6.14;80.66
70051;SHT30;57391;51.306;22.680;2024-02-21T02:11:31;6.11;80.60
70051;SHT30;57391;51.306;22.680;2024-02-21T02:13:33;6.09;80.54
70051;SHT30;57391;51.306;22.680;2024-02-21T02:15:39;6.08;80.45
70051;SHT30;57391;51.306;22.680;2024-02-21T02:17:48;6.06;80.40
70051;SHT30;57391;51.306;22.680;2024-02-21T02:19:50;6.05;80.31
70051;SHT30;57391;51.306;22.680;2024-02-21T02:21:53;6.05;80.30
70051;SHT30;57391;51.306;22.680;2024-02-21T02:24:05;6.05;80.24
70051;SHT30;57391;51.306;22.680;2024-02-21T02:26:08;6.06;80.20
70051;SHT30;57391;51.306;22.680;2024-02-21T02:28:10;6.05;80.01
70051;SHT30;57391;51.306;22.680;2024-02-21T02:30:11;6.05;79.80
70051;SHT30;57391;51.306;22.680;2024-02-21T02:32:13;6.05;79.71
70051;SHT30;57391;51.306;22.680;2024-02-21T02:34:15;6.03;79.68
70051;SHT30;57391;51.306;22.680;2024-02-21T02:36:17;6.05;79.59
70051;SHT30;57391;51.306;22.680;2024-02-21T02:38:19;6.05;79.64
70051;SHT30;57391;51.306;22.680;2024-02-21T02:40:21;6.06;79.60
70051;SHT30;57391;51.306;22.680;2024-02-21T02:42:22;6.06;79.56
70051;SHT30;57391;51.306;22.680;2024-02-21T02:44:24;6.07;79.46
70051;SHT30;57391;51.306;22.680;2024-02-21T02:46:26;6.07;79.44
70051;SHT30;57391;51.306;22.680;2024-02-21T02:48:27;6.07;79.36
70051;SHT30;57391;51.306;22.680;2024-02-21T02:50:29;6.05;79.38
70051;SHT30;57391;51.306;22.680;2024-02-21T02:52:31;6.05;79.29
70051;SHT30;57391;51.306;22.680;2024-02-21T02:54:33;6.04;79.31
70051;SHT30;57391;51.306;22.680;2024-02-21T02:56:35;6.03;79.30
70051;SHT30;57391;51.306;22.680;2024-02-21T02:58:37;6.04;79.30
70051;SHT30;57391;51.306;22.680;2024-02-21T03:00:38;6.03;79.35
70051;SHT30;57391;51.306;22.680;2024-02-21T03:02:42;6.03;79.32
70051;SHT30;57391;51.306;22.680;2024-02-21T03:04:46;6.03;79.34
70051;SHT30;57391;51.306;22.680;2024-02-21T03:06:47;6.02;79.20
70051;SHT30;57391;51.306;22.680;2024-02-21T03:08:49;5.99;79.16
70051;SHT30;57391;51.306;22.680;2024-02-21T03:10:53;6.00;79.11
70051;SHT30;57391;51.306;22.680;2024-02-21T03:12:55;5.96;79.06
70051;SHT30;57391;51.306;22.680;2024-02-21T03:14:57;5.93;79.04
70051;SHT30;57391;51.306;22.680;2024-02-21T03:16:58;5.92;79.15
70051;SHT30;57391;51.306;22.680;2024-02-21T03:19:00;5.91;79.24
70051;SHT30;57391;51.306;22.680;2024-02-21T03:21:02;5.91;79.28
70051;SHT30;57391;51.306;22.680;2024-02-21T03:23:04;5.92;79.21
70051;SHT30;57391;51.306;22.680;2024-02-21T03:25:06;5.89;79.21
70051;SHT30;57391;51.306;22.680;2024-02-21T03:27:09;5.87;79.10
70051;SHT30;57391;51.306;22.680;2024-02-21T03:29:11;5.84;79.05
70051;SHT30;57391;51.306;22.680;2024-02-21T03:31:13;5.79;79.10
70051;SHT30;57391;51.306;22.680;2024-02-21T03:33:15;5.77;79.09
70051;SHT30;57391;51.306;22.680;2024-02-21T03:35:16;5.71;79.19
70051;SHT30;57391;51.306;22.680;2024-02-21T03:37:18;5.69;79.22
70051;SHT30;57391;51.306;22.680;2024-02-21T03:39:20;5.63;79.22
70051;SHT30;57391;51.306;22.680;2024-02-21T03:41:22;5.61;79.29
70051;SHT30;57391;51.306;22.680;2024-02-21T03:43:24;5.59;79.35
70051;SHT30;57391;51.306;22.680;2024-02-21T03:45:26;5.58;79.41
70051;SHT30;57391;51.306;22.680;2024-02-21T03:47:27;5.56;79.54
70051;SHT30;57391;51.306;22.680;2024-02-21T03:49:29;5.56;79.63
70051;SHT30;57391;51.306;22.680;2024-02-21T03:51:31;5.57;79.69
70051;SHT30;57391;51.306;22.680;2024-02-21T03:53:33;5.57;79.64
70051;SHT30;57391;51.306;22.680;2024-02-21T03:55:34;5.56;79.60
70051;SHT30;57391;51.306;22.680;2024-02-21T03:57:37;5.55;79.46
70051;SHT30;57391;51.306;22.680;2024-02-21T03:59:39;5.53;79.43
70051;SHT30;57391;51.306;22.680;2024-02-21T04:01:41;5.50;79.38
70051;SHT30;57391;51.306;22.680;2024-02-21T04:03:43;5.47;79.44
70051;SHT30;57391;51.306;22.680;2024-02-21T04:05:45;5.45;79.34
70051;SHT30;57391;51.306;22.680;2024-02-21T04:07:47;5.42;79.46
70051;SHT30;57391;51.306;22.680;2024-02-21T04:09:49;5.40;79.60
70051;SHT30;57391;51.306;22.680;2024-02-21T04:11:51;5.38;79.76
70051;SHT30;57391;51.306;22.680;2024-02-21T04:13:53;5.38;79.90
70051;SHT30;57391;51.306;22.680;2024-02-21T04:15:54;5.38;79.99
70051;SHT30;57391;51.306;22.680;2024-02-21T04:17:56;5.37;80.14
70051;SHT30;57391;51.306;22.680;2024-02-21T04:20:02;5.38;80.30
70051;SHT30;57391;51.306;22.680;2024-02-21T04:22:12;5.39;80.46
70051;SHT30;57391;51.306;22.680;2024-02-21T04:24:13;5.39;80.56
70051;SHT30;57391;51.306;22.680;2024-02-21T04:26:15;5.41;80.65
70051;SHT30;57391;51.306;22.680;2024-02-21T04:28:17;5.40;80.78
70051;SHT30;57391;51.306;22.680;2024-02-21T04:30:19;5.42;80.94
70051;SHT30;57391;51.306;22.680;2024-02-21T04:32:20;5.42;81.05
70051;SHT30;57391;51.306;22.680;2024-02-21T04:34:22;5.44;81.01
70051;SHT30;57391;51.306;22.680;2024-02-21T04:36:24;5.43;81.07
70051;SHT30;57391;51.306;22.680;2024-02-21T04:38:26;5.44;80.97
70051;SHT30;57391;51.306;22.680;2024-02-21T04:40:28;5.42;80.86
70051;SHT30;57391;51.306;22.680;2024-02-21T04:42:32;5.42;80.93
70051;SHT30;57391;51.306;22.680;2024-02-21T04:44:34;5.42;81.09
70051;SHT30;57391;51.306;22.680;2024-02-21T04:46:35;5.42;81.18
70051;SHT30;57391;51.306;22.680;2024-02-21T04:48:37;5.43;81.36
70051;SHT30;57391;51.306;22.680;2024-02-21T04:50:39;5.46;81.44
70051;SHT30;57391;51.306;22.680;2024-02-21T04:52:43;5.48;81.40
70051;SHT30;57391;51.306;22.680;2024-02-21T04:54:44;5.50;81.40
70051;SHT30;57391;51.306;22.680;2024-02-21T04:56:46;5.53;81.39
70051;SHT30;57391;51.306;22.680;2024-02-21T04:58:48;5.54;81.31
70051;SHT30;57391;51.306;22.680;2024-02-21T05:00:49;5.57;81.25
70051;SHT30;57391;51.306;22.680;2024-02-21T05:02:52;5.58;81.20
70051;SHT30;57391;51.306;22.680;2024-02-21T05:04:53;5.59;81.20
70051;SHT30;57391;51.306;22.680;2024-02-21T05:06:55;5.61;81.13
70051;SHT30;57391;51.306;22.680;2024-02-21T05:08:57;5.61;81.13
70051;SHT30;57391;51.306;22.680;2024-02-21T05:11:00;5.64;81.07
70051;SHT30;57391;51.306;22.680;2024-02-21T05:13:02;5.63;81.10
70051;SHT30;57391;51.306;22.680;2024-02-21T05:15:04;5.62;81.10
70051;SHT30;57391;51.306;22.680;2024-02-21T05:17:06;5.63;81.19
70051;SHT30;57391;51.306;22.680;2024-02-21T05:19:08;5.63;81.07
70051;SHT30;57391;51.306;22.680;2024-02-21T05:21:09;5.64;80.97
70051;SHT30;57391;51.306;22.680;2024-02-21T05:23:11;5.63;80.90
70051;SHT30;57391;51.306;22.680;2024-02-21T05:25:13;5.61;80.90
70051;SHT30;57391;51.306;22.680;2024-02-21T05:27:15;5.60;80.95
70051;SHT30;57391;51.306;22.680;2024-02-21T05:29:17;5.61;80.95
70051;SHT30;57391;51.306;22.680;2024-02-21T05:31:19;5.62;80.90
70051;SHT30;57391;51.306;22.680;2024-02-21T05:33:21;5.62;80.90
70051;SHT30;57391;51.306;22.680;2024-02-21T05:35:27;5.63;80.91
70051;SHT30;57391;51.306;22.680;2024-02-21T05:37:30;5.62;80.93
70051;SHT30;57391;51.306;22.680;2024-02-21T05:39:32;5.60;81.01
70051;SHT30;57391;51.306;22.680;2024-02-21T05:41:34;5.59;81.16
70051;SHT30;57391;51.306;22.680;2024-02-21T05:43:35;5.57;81.28
70051;SHT30;57391;51.306;22.680;2024-02-21T05:45:37;5.56;81.38
70051;SHT30;57391;51.306;22.680;2024-02-21T05:47:39;5.53;81.54
70051;SHT30;57391;51.306;22.680;2024-02-21T05:49:41;5.53;81.64
70051;SHT30;57391;51.306;22.680;2024-02-21T05:51:43;5.55;81.71
70051;SHT30;57391;51.306;22.680;2024-02-21T05:53:44;5.55;81.74
70051;SHT30;57391;51.306;22.680;2024-02-21T05:55:46;5.57;81.80
70051;SHT30;57391;51.306;22.680;2024-02-21T05:57:48;5.56;81.78
70051;SHT30;57391;51.306;22.680;2024-02-21T05:59:50;5.56;81.79
70051;SHT30;57391;51.306;22.680;2024-02-21T06:01:58;5.57;81.88
70051;SHT30;57391;51.306;22.680;2024-02-21T06:04:00;5.57;81.97
70051;SHT30;57391;51.306;22.680;2024-02-21T06:06:02;5.59;81.99
70051;SHT30;57391;51.306;22.680;2024-02-21T06:08:06;5.60;81.94
70051;SHT30;57391;51.306;22.680;2024-02-21T06:10:08;5.61;81.90
70051;SHT30;57391;51.306;22.680;2024-02-21T06:12:10;5.60;81.99
70051;SHT30;57391;51.306;22.680;2024-02-21T06:14:12;5.62;82.00
70051;SHT30;57391;51.306;22.680;2024-02-21T06:16:15;5.62;81.97
70051;SHT30;57391;51.306;22.680;2024-02-21T06:18:17;5.62;81.88
70051;SHT30;57391;51.306;22.680;2024-02-21T06:20:20;5.63;81.85
70051;SHT30;57391;51.306;22.680;2024-02-21T06:22:21;5.61;81.70
70051;SHT30;57391;51.306;22.680;2024-02-21T06:24:23;5.60;81.69
70051;SHT30;57391;51.306;22.680;2024-02-21T06:26:25;5.62;81.70
70051;SHT30;57391;51.306;22.680;2024-02-21T06:28:27;5.68;81.65
70051;SHT30;57391;51.306;22.680;2024-02-21T06:30:28;5.79;81.70
70051;SHT30;57391;51.306;22.680;2024-02-21T06:32:30;5.88;81.59
70051;SHT30;57391;51.306;22.680;2024-02-21T06:34:32;5.96;81.51
70051;SHT30;57391;51.306;22.680;2024-02-21T06:36:34;6.01;81.53
70051;SHT30;57391;51.306;22.680;2024-02-21T06:38:35;6.04;81.38
70051;SHT30;57391;51.306;22.680;2024-02-21T06:40:37;6.04;81.38
70051;SHT30;57391;51.306;22.680;2024-02-21T06:42:41;6.07;81.28
70051;SHT30;57391;51.306;22.680;2024-02-21T06:44:46;6.08;81.25
70051;SHT30;57391;51.306;22.680;2024-02-21T06:46:48;6.12;81.29
70051;SHT30;57391;51.306;22.680;2024-02-21T06:48:50;6.15;81.26
70051;SHT30;57391;51.306;22.680;2024-02-21T06:50:51;6.18;81.35
70051;SHT30;57391;51.306;22.680;2024-02-21T06:52:53;6.19;81.20
70051;SHT30;57391;51.306;22.680;2024-02-21T06:54:55;6.20;81.16
70051;SHT30;57391;51.306;22.680;2024-02-21T06:56:56;6.21;81.22
70051;SHT30;57391;51.306;22.680;2024-02-21T06:58:58;6.22;81.32
70051;SHT30;57391;51.306;22.680;2024-02-21T07:01:00;6.21;81.24
70051;SHT30;57391;51.306;22.680;2024-02-21T07:03:01;6.20;81.25
70051;SHT30;57391;51.306;22.680;2024-02-21T07:05:04;6.20;81.30
70051;SHT30;57391;51.306;22.680;2024-02-21T07:07:06;6.22;81.30
70051;SHT30;57391;51.306;22.680;2024-02-21T07:09:08;6.24;81.30
70051;SHT30;57391;51.306;22.680;2024-02-21T07:11:10;6.27;81.40
70051;SHT30;57391;51.306;22.680;2024-02-21T07:13:12;6.28;81.44
70051;SHT30;57391;51.306;22.680;2024-02-21T07:15:14;6.29;81.36
70051;SHT30;57391;51.306;22.680;2024-02-21T07:17:16;6.30;81.40
70051;SHT30;57391;51.306;22.680;2024-02-21T07:19:18;6.31;81.41
70051;SHT30;57391;51.306;22.680;2024-02-21T07:21:19;6.31;81.43
70051;SHT30;57391;51.306;22.680;2024-02-21T07:23:21;6.32;81.45
70051;SHT30;57391;51.306;22.680;2024-02-21T07:25:23;6.33;81.51
70051;SHT30;57391;51.306;22.680;2024-02-21T07:27:25;6.34;81.46
70051;SHT30;57391;51.306;22.680;2024-02-21T07:29:29;6.35;81.45
70051;SHT30;57391;51.306;22.680;2024-02-21T07:33:07;6.35;81.46
70051;SHT30;57391;51.306;22.680;2024-02-21T07:36:46;6.36;81.49
70051;SHT30;57391;51.306;22.680;2024-02-21T07:40:24;6.36;81.51
70051;SHT30;57391;51.306;22.680;2024-02-21T07:42:32;6.39;81.54
70051;SHT30;57391;51.306;22.680;2024-02-21T07:44:45;6.39;81.47
70051;SHT30;57391;51.306;22.680;2024-02-21T07:46:53;6.42;81.55
70051;SHT30;57391;51.306;22.680;2024-02-21T07:49:07;6.45;81.60
70051;SHT30;57391;51.306;22.680;2024-02-21T07:51:09;6.48;81.50
70051;SHT30;57391;51.306;22.680;2024-02-21T07:53:12;6.57;81.54
70051;SHT30;57391;51.306;22.680;2024-02-21T07:55:24;6.68;81.65
70051;SHT30;57391;51.306;22.680;2024-02-21T07:57:30;6.75;81.29
70051;SHT30;57391;51.306;22.680;2024-02-21T07:59:37;6.80;81.16
70051;SHT30;57391;51.306;22.680;2024-02-21T08:01:52;6.83;80.90
70051;SHT30;57391;51.306;22.680;2024-02-21T08:04:02;6.87;80.85
70051;SHT30;57391;51.306;22.680;2024-02-21T08:06:19;6.90;80.63
70051;SHT30;57391;51.306;22.680;2024-02-21T08:19:04;7.89;79.13
70051;SHT30;57391;51.306;22.680;2024-02-21T08:21:06;7.87;78.95
70051;SHT30;57391;51.306;22.680;2024-02-21T08:23:08;7.79;78.81
70051;SHT30;57391;51.306;22.680;2024-02-21T08:25:10;7.72;78.74
70051;SHT30;57391;51.306;22.680;2024-02-21T08:27:11;7.69;78.89
70051;SHT30;57391;51.306;22.680;2024-02-21T08:29:13;7.65;78.75
70051;SHT30;57391;51.306;22.680;2024-02-21T08:31:18;7.61;78.93
70051;SHT30;57391;51.306;22.680;2024-02-21T08:33:24;7.59;79.00
70051;SHT30;57391;51.306;22.680;2024-02-21T08:35:26;7.58;79.11
70051;SHT30;57391;51.306;22.680;2024-02-21T08:37:28;7.57;79.21
70051;SHT30;57391;51.306;22.680;2024-02-21T08:39:29;7.59;79.40
70051;SHT30;57391;51.306;22.680;2024-02-21T08:41:32;7.61;79.30
70051;SHT30;57391;51.306;22.680;2024-02-21T08:43:35;7.62;79.21
70051;SHT30;57391;51.306;22.680;2024-02-21T08:45:37;7.59;79.00
70051;SHT30;57391;51.306;22.680;2024-02-21T08:47:39;7.58;78.82
70051;SHT30;57391;51.306;22.680;2024-02-21T08:49:41;7.56;78.93
70051;SHT30;57391;51.306;22.680;2024-02-21T08:51:43;7.57;78.85
70051;SHT30;57391;51.306;22.680;2024-02-21T09:03:40;7.60;78.43
70051;SHT30;57391;51.306;22.680;2024-02-21T09:05:42;7.60;78.50
70051;SHT30;57391;51.306;22.680;2024-02-21T09:07:43;7.62;78.46
70051;SHT30;57391;51.306;22.680;2024-02-21T09:09:45;7.65;78.41
70051;SHT30;57391;51.306;22.680;2024-02-21T09:11:47;7.69;78.36
70051;SHT30;57391;51.306;22.680;2024-02-21T09:13:49;7.73;78.14
70051;SHT30;57391;51.306;22.680;2024-02-21T09:15:50;7.75;78.15
70051;SHT30;57391;51.306;22.680;2024-02-21T09:17:52;7.80;78.06
70051;SHT30;57391;51.306;22.680;2024-02-21T09:19:54;7.82;77.99
70051;SHT30;57391;51.306;22.680;2024-02-21T09:21:57;7.85;78.22
70051;SHT30;57391;51.306;22.680;2024-02-21T09:23:58;7.89;78.40
70051;SHT30;57391;51.306;22.680;2024-02-21T09:26:00;7.92;78.31
70051;SHT30;57391;51.306;22.680;2024-02-21T09:28:04;7.98;78.30
70051;SHT30;57391;51.306;22.680;2024-02-21T09:30:07;8.04;77.76
70051;SHT30;57391;51.306;22.680;2024-02-21T09:32:09;8.13;77.97
70051;SHT30;57391;51.306;22.680;2024-02-21T09:34:11;8.22;77.66
70051;SHT30;57391;51.306;22.680;2024-02-21T09:36:12;8.27;77.04
70051;SHT30;57391;51.306;22.680;2024-02-21T09:38:15;8.29;77.01
70051;SHT30;57391;51.306;22.680;2024-02-21T09:40:17;8.30;76.69
70051;SHT30;57391;51.306;22.680;2024-02-21T09:42:20;8.29;76.68
70051;SHT30;57391;51.306;22.680;2024-02-21T09:44:27;8.31;76.94
70051;SHT30;57391;51.306;22.680;2024-02-21T09:49:51;8.33;76.13
70051;SHT30;57391;51.306;22.680;2024-02-21T09:51:34;8.34;76.64
70051;SHT30;57391;51.306;22.680;2024-02-21T09:53:37;8.40;76.75
70051;SHT30;57391;51.306;22.680;2024-02-21T09:55:40;8.46;76.46
70051;SHT30;57391;51.306;22.680;2024-02-21T09:57:44;8.50;76.43
70051;SHT30;57391;51.306;22.680;2024-02-21T09:59:46;8.53;76.39
70051;SHT30;57391;51.306;22.680;2024-02-21T10:01:48;8.55;76.00
70051;SHT30;57391;51.306;22.680;2024-02-21T10:03:51;8.56;76.00
70051;SHT30;57391;51.306;22.680;2024-02-21T10:05:53;8.55;75.79
70051;SHT30;57391;51.306;22.680;2024-02-21T10:07:54;8.56;75.85
70051;SHT30;57391;51.306;22.680;2024-02-21T10:10:03;8.54;75.51
70051;SHT30;57391;51.306;22.680;2024-02-21T10:12:09;8.53;75.36
70051;SHT30;57391;51.306;22.680;2024-02-21T10:14:13;8.53;75.47
70051;SHT30;57391;51.306;22.680;2024-02-21T10:16:16;8.55;75.29
70051;SHT30;57391;51.306;22.680;2024-02-21T10:18:18;8.58;75.40
70051;SHT30;57391;51.306;22.680;2024-02-21T10:20:20;8.58;75.19
70051;SHT30;57391;51.306;22.680;2024-02-21T10:22:22;8.57;75.22
70051;SHT30;57391;51.306;22.680;2024-02-21T10:24:27;8.53;74.84
70051;SHT30;57391;51.306;22.680;2024-02-21T10:26:31;8.48;75.03
70051;SHT30;57391;51.306;22.680;2024-02-21T10:28:32;8.44;75.26
70051;SHT30;57391;51.306;22.680;2024-02-21T10:30:34;8.40;75.09
70051;SHT30;57391;51.306;22.680;2024-02-21T10:32:36;8.38;75.18
70051;SHT30;57391;51.306;22.680;2024-02-21T10:34:38;8.38;75.35
70051;SHT30;57391;51.306;22.680;2024-02-21T10:36:43;8.38;75.39
70051;SHT30;57391;51.306;22.680;2024-02-21T10:38:45;8.39;75.19
70051;SHT30;57391;51.306;22.680;2024-02-21T10:40:47;8.39;75.11
70051;SHT30;57391;51.306;22.680;2024-02-21T10:43:00;8.40;75.04
70051;SHT30;57391;51.306;22.680;2024-02-21T10:45:03;8.44;75.01
70051;SHT30;57391;51.306;22.680;2024-02-21T10:47:09;8.46;75.09
70051;SHT30;57391;51.306;22.680;2024-02-21T10:49:16;8.49;75.29
70051;SHT30;57391;51.306;22.680;2024-02-21T10:51:27;8.49;75.14
70051;SHT30;57391;51.306;22.680;2024-02-21T10:56:42;8.42;75.11
70051;SHT30;57391;51.306;22.680;2024-02-21T10:58:45;8.40;75.21
70051;SHT30;57391;51.306;22.680;2024-02-21T11:00:49;8.41;75.57
70051;SHT30;57391;51.306;22.680;2024-02-21T11:02:52;8.43;75.74
70051;SHT30;57391;51.306;22.680;2024-02-21T11:04:54;8.43;75.55
70051;SHT30;57391;51.306;22.680;2024-02-21T11:06:56;8.43;75.31
70051;SHT30;57391;51.306;22.680;2024-02-21T11:09:00;8.42;75.64
70051;SHT30;57391;51.306;22.680;2024-02-21T11:21:01;8.45;75.94
70051;SHT30;57391;51.306;22.680;2024-02-21T11:23:04;8.49;75.97
70051;SHT30;57391;51.306;22.680;2024-02-21T11:25:06;8.54;75.79
70051;SHT30;57391;51.306;22.680;2024-02-21T11:27:13;8.57;75.39
70051;SHT30;57391;51.306;22.680;2024-02-21T11:29:22;8.59;75.30
70051;SHT30;57391;51.306;22.680;2024-02-21T11:31:37;8.62;74.94
70051;SHT30;57391;51.306;22.680;2024-02-21T11:33:45;8.68;75.03
70051;SHT30;57391;51.306;22.680;2024-02-21T11:35:48;8.72;74.95
70051;SHT30;57391;51.306;22.680;2024-02-21T11:37:50;8.80;75.34
70051;SHT30;57391;51.306;22.680;2024-02-21T11:39:52;8.87;75.18
70051;SHT30;57391;51.306;22.680;2024-02-21T11:42:01;8.95;74.95
70051;SHT30;57391;51.306;22.680;2024-02-21T11:44:07;9.01;74.64
70051;SHT30;57391;51.306;22.680;2024-02-21T11:55:58;9.42;73.59
70051;SHT30;57391;51.306;22.680;2024-02-21T11:58:00;9.50;73.32
70051;SHT30;57391;51.306;22.680;2024-02-21T12:00:17;9.55;72.28
70051;SHT30;57391;51.306;22.680;2024-02-21T12:02:26;9.61;72.30
70051;SHT30;57391;51.306;22.680;2024-02-21T12:04:28;9.69;72.31
70051;SHT30;57391;51.306;22.680;2024-02-21T12:06:33;9.78;72.26
70051;SHT30;57391;51.306;22.680;2024-02-21T12:08:44;9.80;70.86
70051;SHT30;57391;51.306;22.680;2024-02-21T12:21:04;9.90;70.49
70051;SHT30;57391;51.306;22.680;2024-02-21T12:23:08;9.94;70.82
70051;SHT30;57391;51.306;22.680;2024-02-21T12:25:21;10.04;70.81
70051;SHT30;57391;51.306;22.680;2024-02-21T12:27:25;10.13;70.14
70051;SHT30;57391;51.306;22.680;2024-02-21T12:29:28;10.17;69.03
70051;SHT30;57391;51.306;22.680;2024-02-21T12:31:31;10.20;69.88
70051;SHT30;57391;51.306;22.680;2024-02-21T12:33:33;10.27;69.43
70051;SHT30;57391;51.306;22.680;2024-02-21T12:35:34;10.32;68.75
70051;SHT30;57391;51.306;22.680;2024-02-21T12:37:36;10.32;67.79
70051;SHT30;57391;51.306;22.680;2024-02-21T12:39:39;10.30;68.13
70051;SHT30;57391;51.306;22.680;2024-02-21T12:41:41;10.31;68.66
70051;SHT30;57391;51.306;22.680;2024-02-21T12:43:46;10.32;67.97
70051;SHT30;57391;51.306;22.680;2024-02-21T12:45:48;10.31;67.13
70051;SHT30;57391;51.306;22.680;2024-02-21T12:47:50;10.27;66.63
70051;SHT30;57391;51.306;22.680;2024-02-21T12:49:52;10.22;66.91
70051;SHT30;57391;51.306;22.680;2024-02-21T12:51:54;10.20;67.41
70051;SHT30;57391;51.306;22.680;2024-02-21T12:54:01;10.18;68.05
70051;SHT30;57391;51.306;22.680;2024-02-21T12:56:06;10.18;67.97
70051;SHT30;57391;51.306;22.680;2024-02-21T12:58:09;10.19;68.21
70051;SHT30;57391;51.306;22.680;2024-02-21T13:00:11;10.19;67.86
70051;SHT30;57391;51.306;22.680;2024-02-21T13:02:13;10.14;67.53
70051;SHT30;57391;51.306;22.680;2024-02-21T13:04:15;10.09;67.63
70051;SHT30;57391;51.306;22.680;2024-02-21T13:06:17;10.02;67.49
70051;SHT30;57391;51.306;22.680;2024-02-21T13:08:20;9.95;67.75
70051;SHT30;57391;51.306;22.680;2024-02-21T13:10:24;9.88;67.97
70051;SHT30;57391;51.306;22.680;2024-02-21T13:12:26;9.82;68.18
70051;SHT30;57391;51.306;22.680;2024-02-21T13:14:29;9.79;68.63
70051;SHT30;57391;51.306;22.680;2024-02-21T13:16:31;9.74;68.40
70051;SHT30;57391;51.306;22.680;2024-02-21T13:18:35;9.68;68.51
70051;SHT30;57391;51.306;22.680;2024-02-21T13:20:39;9.65;69.07
70051;SHT30;57391;51.306;22.680;2024-02-21T13:23:19;9.64;69.29
70051;SHT30;57391;51.306;22.680;2024-02-21T13:25:22;9.65;69.45
70051;SHT30;57391;51.306;22.680;2024-02-21T13:27:24;9.67;69.89
70051;SHT30;57391;51.306;22.680;2024-02-21T13:29:26;9.69;69.86
70051;SHT30;57391;51.306;22.680;2024-02-21T13:31:28;9.72;69.84
70051;SHT30;57391;51.306;22.680;2024-02-21T13:33:29;9.73;69.75
70051;SHT30;57391;51.306;22.680;2024-02-21T13:35:31;9.72;69.45
70051;SHT30;57391;51.306;22.680;2024-02-21T13:37:33;9.69;69.38
70051;SHT30;57391;51.306;22.680;2024-02-21T13:39:36;9.68;69.54
70051;SHT30;57391;51.306;22.680;2024-02-21T13:41:38;9.66;69.41
70051;SHT30;57391;51.306;22.680;2024-02-21T13:43:40;9.65;69.75
70051;SHT30;57391;51.306;22.680;2024-02-21T13:45:45;9.64;69.78
70051;SHT30;57391;51.306;22.680;2024-02-21T13:48:01;9.69;70.22
70051;SHT30;57391;51.306;22.680;2024-02-21T13:50:03;9.75;69.96
70051;SHT30;57391;51.306;22.680;2024-02-21T13:52:06;9.78;69.45
70051;SHT30;57391;51.306;22.680;2024-02-21T13:54:08;9.80;68.75
70051;SHT30;57391;51.306;22.680;2024-02-21T13:56:10;9.81;68.85
70051;SHT30;57391;51.306;22.680;2024-02-21T13:58:12;9.82;69.32